This is the latest recevied weather packets stored in our database for station/object HB9BTL-13. If no packets are shown the sender has not sent any weather packets the latest 10 day(s).
| Time | Temp. | Humidity | Pressure | Rain* | Wind** | Luminosity | Snow |
|---|---|---|---|---|---|---|---|
| 1777447658 | 15° C | 56% | 1018.2 hPa | - | - | - | - |
| 1777446753 | 15° C | 56% | 1018.1 hPa | - | - | - | - |
| 1777445847 | 15° C | 56% | 1018.1 hPa | - | - | - | - |
| 1777444943 | 15° C | 58% | 1018.2 hPa | - | - | - | - |
| 1777444037 | 15° C | 59% | 1018.1 hPa | - | - | - | - |
| 1777443132 | 15° C | 60% | 1017.8 hPa | - | - | - | - |
| 1777442227 | 14.44° C | 72% | 1017.8 hPa | - | - | - | - |
| 1777441321 | 15° C | 60% | 1017.7 hPa | - | - | - | - |
| 1777440416 | 14.44° C | 72% | 1017.7 hPa | - | - | - | - |
| 1777439510 | 13.89° C | 72% | 1017.7 hPa | - | - | - | - |
| 1777438605 | 13.89° C | 70% | 1017.6 hPa | - | - | - | - |
| 1777437700 | 13.89° C | 74% | 1017.4 hPa | - | - | - | - |
| 1777436794 | 13.89° C | 79% | 1017.3 hPa | - | - | - | - |
| 1777435889 | 13.89° C | 81% | 1017.2 hPa | - | - | - | - |
| 1777434983 | 14.44° C | 76% | 1017.1 hPa | - | - | - | - |
| 1777427740 | 14.44° C | 96% | 1016.5 hPa | - | - | - | - |
| 1777410538 | 16.11° C | 83% | 1016.8 hPa | - | - | - | - |
| 1777407822 | 16.11° C | 80% | 1016.6 hPa | - | - | - | - |
| 1777397863 | 17.78° C | 68% | 1015.8 hPa | - | - | - | - |
| 1777396052 | 18.33° C | 63% | 1015.6 hPa | - | - | - | - |
| 1777395147 | 18.89° C | 62% | 1015.6 hPa | - | - | - | - |
| 1777392430 | 18.89° C | 70% | 1015.3 hPa | - | - | - | - |
| 1777390619 | 19.44° C | 67% | 1015.2 hPa | - | - | - | - |
| 1777386997 | 19.44° C | 52% | 1015.1 hPa | - | - | - | - |
| 1777386093 | 19.44° C | 50% | 1015.1 hPa | - | - | - | - |
* Rain since midnight (hover to see other rain measurements)
** Current wind speed in m/s (hover to see current wind gust speed)